SBIP

Details ICAO SBIP (IPN)
Name USIMINAS
Region Brazil
Timezone America/Sao_Paulo (UTC-2.0)
Plans Departing 6
Arriving 14
Stats Elevation 784 ft / 239 m (AMSL)
Location -19.470709° -42.487583°
Runways 1
Magnetic Variation 23.255° W
Sunrise 2017-12-13 08:06:55 UTC / 2017-12-13 06:06:55 Local
Sunset 2017-12-13 21:24:19 UTC / 2017-12-13 19:24:19 Local
Advertisement - Login to hide

Runways

ID Width Length Bearing (true) Bearing (mag) Surface Threshold Offset Overrun Length
05 148 ft / 45 m 6,605 ft / 2,013 m 30.23° 53.49° Asphalt 0 ft / 0 m 205 ft / 62 m
23 148 ft / 45 m 6,605 ft / 2,013 m 210.23° 233.49° Asphalt 0 ft / 0 m 205 ft / 62 m

Map

Weather


0- 5 10 15 20 25 30 35+ Temperature / ° C

Clouds and Precipitation
Forecast for 2017-12-13 18:00 UTC. Updated 2 hours ago

Ground ~20,000 ft ~40,000 ft Winds

METAR

SBIP 131600Z 01007KT 9999 SCT025 BKN060 28/21 Q1017

TAF

Not found

Frequencies

Tower 130.00 MHz RDO
Warning: Do not use this data for real-world aviation or navigation. No guarantee of current accuracy is given.